sensor_id;sensor_type;location;lat;lon;timestamp;P1;durP1;ratioP1;P2;durP2;ratioP2
73841;SDS011;62184;52.006;5.924;2023-03-16T00:00:27;11.30;;;9.43;;
73841;SDS011;62184;52.006;5.924;2023-03-16T00:02:54;10.15;;;8.65;;
73841;SDS011;62184;52.006;5.924;2023-03-16T00:05:20;10.00;;;8.63;;
73841;SDS011;62184;52.006;5.924;2023-03-16T00:07:49;9.77;;;8.65;;
73841;SDS011;62184;52.006;5.924;2023-03-16T00:10:16;9.82;;;8.55;;
73841;SDS011;62184;52.006;5.924;2023-03-16T00:12:43;9.90;;;8.45;;
73841;SDS011;62184;52.006;5.924;2023-03-16T00:15:09;9.80;;;8.80;;
73841;SDS011;62184;52.006;5.924;2023-03-16T00:17:36;9.43;;;8.53;;
73841;SDS011;62184;52.006;5.924;2023-03-16T00:20:03;9.13;;;8.23;;
73841;SDS011;62184;52.006;5.924;2023-03-16T00:22:31;9.93;;;8.35;;
73841;SDS011;62184;52.006;5.924;2023-03-16T00:25:00;9.40;;;8.32;;
73841;SDS011;62184;52.006;5.924;2023-03-16T00:27:27;9.53;;;8.63;;
73841;SDS011;62184;52.006;5.924;2023-03-16T00:29:54;9.80;;;8.80;;
73841;SDS011;62184;52.006;5.924;2023-03-16T00:32:21;9.40;;;8.50;;
73841;SDS011;62184;52.006;5.924;2023-03-16T00:34:49;9.48;;;8.57;;
73841;SDS011;62184;52.006;5.924;2023-03-16T00:37:17;9.98;;;8.85;;
73841;SDS011;62184;52.006;5.924;2023-03-16T00:39:46;11.03;;;8.80;;
73841;SDS011;62184;52.006;5.924;2023-03-16T00:42:15;9.93;;;8.93;;
73841;SDS011;62184;52.006;5.924;2023-03-16T00:44:44;9.90;;;8.70;;
73841;SDS011;62184;52.006;5.924;2023-03-16T00:47:11;10.05;;;9.02;;
73841;SDS011;62184;52.006;5.924;2023-03-16T00:49:38;9.20;;;8.30;;
73841;SDS011;62184;52.006;5.924;2023-03-16T00:52:07;10.40;;;9.30;;
73841;SDS011;62184;52.006;5.924;2023-03-16T00:54:36;9.93;;;9.02;;
73841;SDS011;62184;52.006;5.924;2023-03-16T00:57:03;9.68;;;8.68;;
73841;SDS011;62184;52.006;5.924;2023-03-16T00:59:32;10.75;;;9.00;;
73841;SDS011;62184;52.006;5.924;2023-03-16T01:01:58;9.80;;;8.80;;
73841;SDS011;62184;52.006;5.924;2023-03-16T01:04:24;9.95;;;8.63;;
73841;SDS011;62184;52.006;5.924;2023-03-16T01:06:51;9.90;;;9.00;;
73841;SDS011;62184;52.006;5.924;2023-03-16T01:09:17;9.82;;;8.48;;
73841;SDS011;62184;52.006;5.924;2023-03-16T01:11:44;9.40;;;8.38;;
73841;SDS011;62184;52.006;5.924;2023-03-16T01:14:10;10.00;;;9.00;;
73841;SDS011;62184;52.006;5.924;2023-03-16T01:16:39;9.88;;;8.88;;
73841;SDS011;62184;52.006;5.924;2023-03-16T01:19:06;9.55;;;8.55;;
73841;SDS011;62184;52.006;5.924;2023-03-16T01:21:32;10.35;;;9.25;;
73841;SDS011;62184;52.006;5.924;2023-03-16T01:23:59;9.93;;;8.60;;
73841;SDS011;62184;52.006;5.924;2023-03-16T01:26:25;9.23;;;8.32;;
73841;SDS011;62184;52.006;5.924;2023-03-16T01:28:52;9.57;;;8.68;;
73841;SDS011;62184;52.006;5.924;2023-03-16T01:31:18;9.27;;;8.38;;
73841;SDS011;62184;52.006;5.924;2023-03-16T01:33:47;9.60;;;8.60;;
73841;SDS011;62184;52.006;5.924;2023-03-16T01:36:14;9.50;;;8.23;;
73841;SDS011;62184;52.006;5.924;2023-03-16T01:38:44;9.70;;;8.70;;
73841;SDS011;62184;52.006;5.924;2023-03-16T01:41:11;9.13;;;8.23;;
73841;SDS011;62184;52.006;5.924;2023-03-16T01:43:38;10.85;;;8.18;;
73841;SDS011;62184;52.006;5.924;2023-03-16T01:46:16;9.60;;;8.27;;
73841;SDS011;62184;52.006;5.924;2023-03-16T01:48:54;9.32;;;8.27;;
73841;SDS011;62184;52.006;5.924;2023-03-16T01:51:30;9.05;;;8.25;;
73841;SDS011;62184;52.006;5.924;2023-03-16T01:54:03;9.00;;;8.10;;
73841;SDS011;62184;52.006;5.924;2023-03-16T01:56:35;9.20;;;8.30;;
73841;SDS011;62184;52.006;5.924;2023-03-16T01:59:09;9.15;;;8.15;;
73841;SDS011;62184;52.006;5.924;2023-03-16T02:01:40;9.30;;;8.30;;
73841;SDS011;62184;52.006;5.924;2023-03-16T02:04:16;9.45;;;8.50;;
73841;SDS011;62184;52.006;5.924;2023-03-16T02:07:00;10.23;;;9.20;;
73841;SDS011;62184;52.006;5.924;2023-03-16T02:09:29;9.18;;;8.07;;
73841;SDS011;62184;52.006;5.924;2023-03-16T02:11:58;9.35;;;8.40;;
73841;SDS011;62184;52.006;5.924;2023-03-16T02:14:25;9.70;;;8.70;;
73841;SDS011;62184;52.006;5.924;2023-03-16T02:16:52;10.07;;;8.60;;
73841;SDS011;62184;52.006;5.924;2023-03-16T02:19:26;9.73;;;8.73;;
73841;SDS011;62184;52.006;5.924;2023-03-16T02:22:08;10.55;;;9.10;;
73841;SDS011;62184;52.006;5.924;2023-03-16T02:24:35;9.98;;;8.88;;
73841;SDS011;62184;52.006;5.924;2023-03-16T02:27:03;11.38;;;9.15;;
73841;SDS011;62184;52.006;5.924;2023-03-16T02:29:53;10.00;;;8.80;;
73841;SDS011;62184;52.006;5.924;2023-03-16T02:32:28;10.38;;;8.90;;
73841;SDS011;62184;52.006;5.924;2023-03-16T02:34:57;10.70;;;9.52;;
73841;SDS011;62184;52.006;5.924;2023-03-16T02:37:26;10.02;;;8.85;;
73841;SDS011;62184;52.006;5.924;2023-03-16T02:39:52;10.25;;;9.15;;
73841;SDS011;62184;52.006;5.924;2023-03-16T02:42:19;10.55;;;9.45;;
73841;SDS011;62184;52.006;5.924;2023-03-16T02:44:51;10.90;;;9.48;;
73841;SDS011;62184;52.006;5.924;2023-03-16T02:47:26;11.82;;;8.98;;
73841;SDS011;62184;52.006;5.924;2023-03-16T02:50:00;10.45;;;9.35;;
73841;SDS011;62184;52.006;5.924;2023-03-16T02:52:27;11.18;;;9.15;;
73841;SDS011;62184;52.006;5.924;2023-03-16T02:54:54;10.82;;;8.88;;
73841;SDS011;62184;52.006;5.924;2023-03-16T02:57:20;10.75;;;9.00;;
73841;SDS011;62184;52.006;5.924;2023-03-16T02:59:47;10.50;;;9.05;;
73841;SDS011;62184;52.006;5.924;2023-03-16T03:02:16;10.38;;;8.80;;
73841;SDS011;62184;52.006;5.924;2023-03-16T03:04:42;9.65;;;8.68;;
73841;SDS011;62184;52.006;5.924;2023-03-16T03:07:09;9.50;;;8.43;;
73841;SDS011;62184;52.006;5.924;2023-03-16T03:09:36;9.88;;;8.80;;
73841;SDS011;62184;52.006;5.924;2023-03-16T03:12:03;9.52;;;8.52;;
73841;SDS011;62184;52.006;5.924;2023-03-16T03:14:30;9.68;;;8.25;;
73841;SDS011;62184;52.006;5.924;2023-03-16T03:16:56;10.43;;;8.77;;
73841;SDS011;62184;52.006;5.924;2023-03-16T03:19:25;10.00;;;8.30;;
73841;SDS011;62184;52.006;5.924;2023-03-16T03:21:51;11.68;;;8.43;;
73841;SDS011;62184;52.006;5.924;2023-03-16T03:24:18;9.30;;;8.30;;
73841;SDS011;62184;52.006;5.924;2023-03-16T03:26:44;9.77;;;8.25;;
73841;SDS011;62184;52.006;5.924;2023-03-16T03:29:11;10.00;;;8.25;;
73841;SDS011;62184;52.006;5.924;2023-03-16T03:31:37;9.50;;;8.50;;
73841;SDS011;62184;52.006;5.924;2023-03-16T03:34:04;9.67;;;8.00;;
73841;SDS011;62184;52.006;5.924;2023-03-16T03:36:33;9.50;;;8.33;;
73841;SDS011;62184;52.006;5.924;2023-03-16T03:38:59;9.93;;;8.52;;
73841;SDS011;62184;52.006;5.924;2023-03-16T03:41:26;8.90;;;7.90;;
73841;SDS011;62184;52.006;5.924;2023-03-16T03:43:52;9.25;;;8.10;;
73841;SDS011;62184;52.006;5.924;2023-03-16T03:46:19;9.48;;;8.10;;
73841;SDS011;62184;52.006;5.924;2023-03-16T03:48:45;10.02;;;8.23;;
73841;SDS011;62184;52.006;5.924;2023-03-16T03:51:12;9.02;;;8.00;;
73841;SDS011;62184;52.006;5.924;2023-03-16T03:53:41;8.70;;;7.80;;
73841;SDS011;62184;52.006;5.924;2023-03-16T03:56:07;9.50;;;8.13;;
73841;SDS011;62184;52.006;5.924;2023-03-16T03:58:34;9.43;;;7.90;;
73841;SDS011;62184;52.006;5.924;2023-03-16T04:01:01;9.07;;;7.82;;
73841;SDS011;62184;52.006;5.924;2023-03-16T04:03:28;8.97;;;8.03;;
73841;SDS011;62184;52.006;5.924;2023-03-16T04:05:54;9.40;;;7.97;;
73841;SDS011;62184;52.006;5.924;2023-03-16T04:08:21;9.05;;;8.07;;
73841;SDS011;62184;52.006;5.924;2023-03-16T04:10:50;10.15;;;8.32;;
73841;SDS011;62184;52.006;5.924;2023-03-16T04:13:16;10.15;;;8.40;;
73841;SDS011;62184;52.006;5.924;2023-03-16T04:15:43;10.48;;;8.18;;
73841;SDS011;62184;52.006;5.924;2023-03-16T04:18:09;9.35;;;7.47;;
73841;SDS011;62184;52.006;5.924;2023-03-16T04:20:36;9.68;;;8.43;;
73841;SDS011;62184;52.006;5.924;2023-03-16T04:23:02;11.10;;;8.00;;
73841;SDS011;62184;52.006;5.924;2023-03-16T04:25:29;9.73;;;8.10;;
73841;SDS011;62184;52.006;5.924;2023-03-16T04:27:58;9.63;;;8.02;;
73841;SDS011;62184;52.006;5.924;2023-03-16T04:30:24;10.88;;;7.75;;
73841;SDS011;62184;52.006;5.924;2023-03-16T04:32:51;9.50;;;7.55;;
73841;SDS011;62184;52.006;5.924;2023-03-16T04:35:17;8.90;;;7.65;;
73841;SDS011;62184;52.006;5.924;2023-03-16T04:37:44;9.35;;;8.00;;
73841;SDS011;62184;52.006;5.924;2023-03-16T04:40:11;9.32;;;7.85;;
73841;SDS011;62184;52.006;5.924;2023-03-16T04:42:38;11.03;;;8.43;;
73841;SDS011;62184;52.006;5.924;2023-03-16T04:45:08;9.37;;;8.20;;
73841;SDS011;62184;52.006;5.924;2023-03-16T04:47:35;9.77;;;7.75;;
73841;SDS011;62184;52.006;5.924;2023-03-16T04:50:02;9.02;;;7.70;;
73841;SDS011;62184;52.006;5.924;2023-03-16T04:52:29;10.45;;;7.90;;
73841;SDS011;62184;52.006;5.924;2023-03-16T04:54:57;10.45;;;8.20;;
73841;SDS011;62184;52.006;5.924;2023-03-16T04:57:23;10.00;;;7.75;;
73841;SDS011;62184;52.006;5.924;2023-03-16T04:59:50;9.73;;;7.97;;
73841;SDS011;62184;52.006;5.924;2023-03-16T05:02:19;9.55;;;7.95;;
73841;SDS011;62184;52.006;5.924;2023-03-16T05:04:45;8.73;;;7.80;;
73841;SDS011;62184;52.006;5.924;2023-03-16T05:07:13;11.00;;;8.07;;
73841;SDS011;62184;52.006;5.924;2023-03-16T05:09:39;9.45;;;8.10;;
73841;SDS011;62184;52.006;5.924;2023-03-16T05:12:06;9.85;;;8.00;;
73841;SDS011;62184;52.006;5.924;2023-03-16T05:14:33;9.73;;;8.13;;
73841;SDS011;62184;52.006;5.924;2023-03-16T05:17:00;10.90;;;8.77;;
73841;SDS011;62184;52.006;5.924;2023-03-16T05:19:29;9.85;;;8.10;;
73841;SDS011;62184;52.006;5.924;2023-03-16T05:21:55;9.43;;;8.10;;
73841;SDS011;62184;52.006;5.924;2023-03-16T05:24:22;9.75;;;8.07;;
73841;SDS011;62184;52.006;5.924;2023-03-16T05:26:48;9.30;;;8.05;;
73841;SDS011;62184;52.006;5.924;2023-03-16T05:29:15;10.02;;;8.30;;
73841;SDS011;62184;52.006;5.924;2023-03-16T05:31:41;10.07;;;8.00;;
73841;SDS011;62184;52.006;5.924;2023-03-16T05:34:07;9.25;;;7.68;;
73841;SDS011;62184;52.006;5.924;2023-03-16T05:36:36;11.15;;;8.35;;
73841;SDS011;62184;52.006;5.924;2023-03-16T05:39:03;9.90;;;7.93;;
73841;SDS011;62184;52.006;5.924;2023-03-16T05:41:29;9.23;;;7.72;;
73841;SDS011;62184;52.006;5.924;2023-03-16T05:43:56;10.32;;;7.90;;
73841;SDS011;62184;52.006;5.924;2023-03-16T05:46:22;9.57;;;7.90;;
73841;SDS011;62184;52.006;5.924;2023-03-16T05:48:49;10.38;;;8.02;;
73841;SDS011;62184;52.006;5.924;2023-03-16T05:51:15;10.57;;;8.20;;
73841;SDS011;62184;52.006;5.924;2023-03-16T05:53:44;9.20;;;8.20;;
73841;SDS011;62184;52.006;5.924;2023-03-16T05:56:10;10.13;;;8.10;;
73841;SDS011;62184;52.006;5.924;2023-03-16T05:58:37;10.53;;;8.10;;
73841;SDS011;62184;52.006;5.924;2023-03-16T06:01:04;10.43;;;8.07;;
73841;SDS011;62184;52.006;5.924;2023-03-16T06:03:30;9.38;;;7.63;;
73841;SDS011;62184;52.006;5.924;2023-03-16T06:05:57;9.98;;;7.50;;
73841;SDS011;62184;52.006;5.924;2023-03-16T06:08:23;9.55;;;7.93;;
73841;SDS011;62184;52.006;5.924;2023-03-16T06:10:52;9.70;;;7.80;;
73841;SDS011;62184;52.006;5.924;2023-03-16T06:13:19;9.75;;;7.90;;
73841;SDS011;62184;52.006;5.924;2023-03-16T06:15:45;9.10;;;7.47;;
73841;SDS011;62184;52.006;5.924;2023-03-16T06:18:11;10.57;;;7.93;;
73841;SDS011;62184;52.006;5.924;2023-03-16T06:20:38;11.03;;;7.70;;
73841;SDS011;62184;52.006;5.924;2023-03-16T06:23:04;9.93;;;7.27;;
73841;SDS011;62184;52.006;5.924;2023-03-16T06:25:31;9.30;;;7.67;;
73841;SDS011;62184;52.006;5.924;2023-03-16T06:28:00;10.43;;;7.63;;
73841;SDS011;62184;52.006;5.924;2023-03-16T06:30:26;9.05;;;7.20;;
73841;SDS011;62184;52.006;5.924;2023-03-16T06:32:52;9.60;;;7.00;;
73841;SDS011;62184;52.006;5.924;2023-03-16T06:35:19;10.20;;;6.95;;
73841;SDS011;62184;52.006;5.924;2023-03-16T06:37:45;8.90;;;6.90;;
73841;SDS011;62184;52.006;5.924;2023-03-16T06:40:12;9.23;;;6.70;;
73841;SDS011;62184;52.006;5.924;2023-03-16T06:42:38;9.18;;;6.85;;
73841;SDS011;62184;52.006;5.924;2023-03-16T06:45:08;9.50;;;6.73;;
73841;SDS011;62184;52.006;5.924;2023-03-16T06:47:36;10.20;;;6.75;;
73841;SDS011;62184;52.006;5.924;2023-03-16T06:50:03;8.95;;;6.70;;
73841;SDS011;62184;52.006;5.924;2023-03-16T06:52:30;9.05;;;6.80;;
73841;SDS011;62184;52.006;5.924;2023-03-16T06:54:57;10.00;;;7.05;;
73841;SDS011;62184;52.006;5.924;2023-03-16T06:57:23;9.48;;;7.32;;
73841;SDS011;62184;52.006;5.924;2023-03-16T06:59:50;9.80;;;7.10;;
73841;SDS011;62184;52.006;5.924;2023-03-16T07:02:19;9.73;;;7.40;;
73841;SDS011;62184;52.006;5.924;2023-03-16T07:04:45;9.17;;;7.13;;
73841;SDS011;62184;52.006;5.924;2023-03-16T07:07:12;10.07;;;7.25;;
73841;SDS011;62184;52.006;5.924;2023-03-16T07:09:38;9.82;;;7.28;;
73841;SDS011;62184;52.006;5.924;2023-03-16T07:12:05;9.00;;;6.78;;
73841;SDS011;62184;52.006;5.924;2023-03-16T07:14:32;10.02;;;6.97;;
73841;SDS011;62184;52.006;5.924;2023-03-16T07:16:58;8.60;;;6.70;;
73841;SDS011;62184;52.006;5.924;2023-03-16T07:19:28;9.23;;;7.10;;
73841;SDS011;62184;52.006;5.924;2023-03-16T07:21:54;9.20;;;6.90;;
73841;SDS011;62184;52.006;5.924;2023-03-16T07:24:21;8.95;;;6.53;;
73841;SDS011;62184;52.006;5.924;2023-03-16T07:26:47;9.90;;;6.70;;
73841;SDS011;62184;52.006;5.924;2023-03-16T07:29:14;9.07;;;6.40;;
73841;SDS011;62184;52.006;5.924;2023-03-16T07:31:40;11.02;;;6.90;;
73841;SDS011;62184;52.006;5.924;2023-03-16T07:34:07;9.77;;;6.63;;
73841;SDS011;62184;52.006;5.924;2023-03-16T07:36:36;9.32;;;6.55;;
73841;SDS011;62184;52.006;5.924;2023-03-16T07:39:03;9.65;;;6.40;;
73841;SDS011;62184;52.006;5.924;2023-03-16T07:41:30;9.82;;;6.82;;
73841;SDS011;62184;52.006;5.924;2023-03-16T07:43:56;10.40;;;7.20;;
73841;SDS011;62184;52.006;5.924;2023-03-16T07:46:23;9.15;;;7.00;;
73841;SDS011;62184;52.006;5.924;2023-03-16T07:48:50;10.30;;;7.32;;
73841;SDS011;62184;52.006;5.924;2023-03-16T07:51:16;10.95;;;7.32;;
73841;SDS011;62184;52.006;5.924;2023-03-16T07:53:45;10.35;;;7.63;;
73841;SDS011;62184;52.006;5.924;2023-03-16T07:56:12;11.27;;;7.77;;
73841;SDS011;62184;52.006;5.924;2023-03-16T07:58:38;9.47;;;7.03;;
73841;SDS011;62184;52.006;5.924;2023-03-16T08:01:05;10.07;;;7.47;;
73841;SDS011;62184;52.006;5.924;2023-03-16T08:03:31;10.60;;;7.32;;
73841;SDS011;62184;52.006;5.924;2023-03-16T08:05:57;12.20;;;7.50;;
73841;SDS011;62184;52.006;5.924;2023-03-16T08:08:24;10.35;;;7.22;;
73841;SDS011;62184;52.006;5.924;2023-03-16T08:10:53;9.55;;;7.13;;
73841;SDS011;62184;52.006;5.924;2023-03-16T08:13:19;10.23;;;7.28;;
73841;SDS011;62184;52.006;5.924;2023-03-16T08:15:46;11.13;;;7.82;;
73841;SDS011;62184;52.006;5.924;2023-03-16T08:18:13;10.07;;;7.30;;
73841;SDS011;62184;52.006;5.924;2023-03-16T08:20:40;11.15;;;7.15;;
73841;SDS011;62184;52.006;5.924;2023-03-16T08:23:07;10.32;;;6.80;;
73841;SDS011;62184;52.006;5.924;2023-03-16T08:25:33;11.27;;;7.18;;
73841;SDS011;62184;52.006;5.924;2023-03-16T08:28:02;10.18;;;7.30;;
73841;SDS011;62184;52.006;5.924;2023-03-16T08:30:29;11.75;;;7.18;;
73841;SDS011;62184;52.006;5.924;2023-03-16T08:32:55;10.75;;;7.13;;
73841;SDS011;62184;52.006;5.924;2023-03-16T08:35:22;10.60;;;6.97;;
73841;SDS011;62184;52.006;5.924;2023-03-16T08:37:49;10.07;;;7.10;;
73841;SDS011;62184;52.006;5.924;2023-03-16T08:40:15;9.73;;;7.07;;
73841;SDS011;62184;52.006;5.924;2023-03-16T08:42:42;10.88;;;7.18;;
73841;SDS011;62184;52.006;5.924;2023-03-16T08:45:12;10.60;;;7.30;;
73841;SDS011;62184;52.006;5.924;2023-03-16T08:47:38;11.00;;;7.43;;
73841;SDS011;62184;52.006;5.924;2023-03-16T08:50:06;10.55;;;7.20;;
73841;SDS011;62184;52.006;5.924;2023-03-16T08:52:35;10.17;;;7.07;;
73841;SDS011;62184;52.006;5.924;2023-03-16T08:55:02;9.20;;;7.07;;
73841;SDS011;62184;52.006;5.924;2023-03-16T08:57:29;12.70;;;6.78;;
73841;SDS011;62184;52.006;5.924;2023-03-16T08:59:55;9.45;;;6.63;;
73841;SDS011;62184;52.006;5.924;2023-03-16T09:02:24;8.65;;;6.80;;
73841;SDS011;62184;52.006;5.924;2023-03-16T09:04:51;10.03;;;6.90;;
73841;SDS011;62184;52.006;5.924;2023-03-16T09:07:18;9.65;;;7.13;;
73841;SDS011;62184;52.006;5.924;2023-03-16T09:09:44;9.68;;;6.75;;
73841;SDS011;62184;52.006;5.924;2023-03-16T09:12:11;10.00;;;7.40;;
73841;SDS011;62184;52.006;5.924;2023-03-16T09:14:38;9.43;;;7.00;;
73841;SDS011;62184;52.006;5.924;2023-03-16T09:17:04;9.18;;;7.15;;
73841;SDS011;62184;52.006;5.924;2023-03-16T09:19:34;10.07;;;7.25;;
73841;SDS011;62184;52.006;5.924;2023-03-16T09:22:00;9.17;;;7.30;;
73841;SDS011;62184;52.006;5.924;2023-03-16T09:24:27;10.53;;;7.17;;
73841;SDS011;62184;52.006;5.924;2023-03-16T09:26:53;9.20;;;7.10;;
73841;SDS011;62184;52.006;5.924;2023-03-16T09:29:20;11.40;;;7.03;;
73841;SDS011;62184;52.006;5.924;2023-03-16T09:31:46;9.40;;;6.80;;
73841;SDS011;62184;52.006;5.924;2023-03-16T09:34:13;10.38;;;7.13;;
73841;SDS011;62184;52.006;5.924;2023-03-16T09:36:41;10.18;;;7.28;;
73841;SDS011;62184;52.006;5.924;2023-03-16T09:39:08;10.43;;;7.40;;
73841;SDS011;62184;52.006;5.924;2023-03-16T09:41:38;9.48;;;7.10;;
73841;SDS011;62184;52.006;5.924;2023-03-16T09:44:20;9.60;;;7.13;;
73841;SDS011;62184;52.006;5.924;2023-03-16T09:47:02;9.45;;;6.95;;
73841;SDS011;62184;52.006;5.924;2023-03-16T09:49:34;9.90;;;7.03;;
73841;SDS011;62184;52.006;5.924;2023-03-16T09:52:16;11.05;;;6.95;;
73841;SDS011;62184;52.006;5.924;2023-03-16T09:54:55;9.20;;;6.85;;
73841;SDS011;62184;52.006;5.924;2023-03-16T09:57:29;9.57;;;7.07;;
73841;SDS011;62184;52.006;5.924;2023-03-16T10:00:00;9.07;;;6.60;;
73841;SDS011;62184;52.006;5.924;2023-03-16T10:02:44;9.43;;;7.00;;
73841;SDS011;62184;52.006;5.924;2023-03-16T10:05:31;9.27;;;6.90;;
73841;SDS011;62184;52.006;5.924;2023-03-16T10:08:06;8.93;;;7.03;;
73841;SDS011;62184;52.006;5.924;2023-03-16T10:10:42;9.32;;;6.82;;
73841;SDS011;62184;52.006;5.924;2023-03-16T10:13:34;9.60;;;7.40;;
73841;SDS011;62184;52.006;5.924;2023-03-16T10:16:11;10.87;;;7.23;;
73841;SDS011;62184;52.006;5.924;2023-03-16T10:18:47;8.67;;;7.00;;
73841;SDS011;62184;52.006;5.924;2023-03-16T10:21:18;9.33;;;7.40;;
73841;SDS011;62184;52.006;5.924;2023-03-16T10:23:48;8.95;;;6.97;;
73841;SDS011;62184;52.006;5.924;2023-03-16T10:26:20;9.20;;;6.45;;
73841;SDS011;62184;52.006;5.924;2023-03-16T10:28:55;8.40;;;6.63;;
73841;SDS011;62184;52.006;5.924;2023-03-16T10:31:21;8.73;;;6.70;;
73841;SDS011;62184;52.006;5.924;2023-03-16T10:33:48;9.38;;;6.93;;
73841;SDS011;62184;52.006;5.924;2023-03-16T10:36:23;9.50;;;7.10;;
73841;SDS011;62184;52.006;5.924;2023-03-16T10:39:00;10.00;;;6.60;;
73841;SDS011;62184;52.006;5.924;2023-03-16T10:41:29;9.70;;;6.40;;
73841;SDS011;62184;52.006;5.924;2023-03-16T10:44:00;9.48;;;6.75;;
73841;SDS011;62184;52.006;5.924;2023-03-16T10:46:37;9.23;;;7.18;;
73841;SDS011;62184;52.006;5.924;2023-03-16T10:49:16;9.40;;;7.13;;
73841;SDS011;62184;52.006;5.924;2023-03-16T10:51:47;10.32;;;7.18;;
73841;SDS011;62184;52.006;5.924;2023-03-16T10:54:18;9.32;;;6.82;;
73841;SDS011;62184;52.006;5.924;2023-03-16T10:56:52;9.02;;;6.70;;
73841;SDS011;62184;52.006;5.924;2023-03-16T10:59:25;9.15;;;7.10;;
73841;SDS011;62184;52.006;5.924;2023-03-16T11:01:55;9.43;;;7.37;;
73841;SDS011;62184;52.006;5.924;2023-03-16T11:04:22;9.23;;;7.00;;
73841;SDS011;62184;52.006;5.924;2023-03-16T11:06:53;9.43;;;7.15;;
73841;SDS011;62184;52.006;5.924;2023-03-16T11:09:25;8.68;;;7.10;;
73841;SDS011;62184;52.006;5.924;2023-03-16T11:11:59;9.60;;;7.00;;
73841;SDS011;62184;52.006;5.924;2023-03-16T11:14:41;8.13;;;6.90;;
73841;SDS011;62184;52.006;5.924;2023-03-16T11:17:09;10.10;;;7.00;;
73841;SDS011;62184;52.006;5.924;2023-03-16T11:19:43;8.30;;;7.05;;
73841;SDS011;62184;52.006;5.924;2023-03-16T11:22:18;9.48;;;6.88;;
73841;SDS011;62184;52.006;5.924;2023-03-16T11:24:51;9.85;;;7.72;;
73841;SDS011;62184;52.006;5.924;2023-03-16T11:27:27;8.52;;;7.43;;
73841;SDS011;62184;52.006;5.924;2023-03-16T11:30:03;8.87;;;7.50;;
73841;SDS011;62184;52.006;5.924;2023-03-16T11:32:40;9.20;;;7.63;;
73841;SDS011;62184;52.006;5.924;2023-03-16T11:35:14;8.65;;;7.45;;
73841;SDS011;62184;52.006;5.924;2023-03-16T11:37:47;9.23;;;7.53;;
73841;SDS011;62184;52.006;5.924;2023-03-16T11:40:34;10.40;;;7.85;;
73841;SDS011;62184;52.006;5.924;2023-03-16T11:43:20;9.03;;;7.43;;
73841;SDS011;62184;52.006;5.924;2023-03-16T11:46:16;8.75;;;7.85;;
73841;SDS011;62184;52.006;5.924;2023-03-16T11:49:00;9.43;;;7.85;;
73841;SDS011;62184;52.006;5.924;2023-03-16T11:51:57;10.50;;;8.10;;
73841;SDS011;62184;52.006;5.924;2023-03-16T11:54:37;11.45;;;8.15;;
73841;SDS011;62184;52.006;5.924;2023-03-16T11:57:25;10.55;;;8.10;;
73841;SDS011;62184;52.006;5.924;2023-03-16T12:00:06;9.13;;;8.13;;
73841;SDS011;62184;52.006;5.924;2023-03-16T12:02:49;9.30;;;8.00;;
73841;SDS011;62184;52.006;5.924;2023-03-16T12:05:40;9.82;;;8.02;;
73841;SDS011;62184;52.006;5.924;2023-03-16T12:08:24;9.13;;;7.50;;
73841;SDS011;62184;52.006;5.924;2023-03-16T12:11:18;9.38;;;7.45;;
73841;SDS011;62184;52.006;5.924;2023-03-16T12:13:56;9.47;;;7.80;;
73841;SDS011;62184;52.006;5.924;2023-03-16T12:16:38;8.85;;;7.88;;
73841;SDS011;62184;52.006;5.924;2023-03-16T12:19:14;8.55;;;7.65;;
73841;SDS011;62184;52.006;5.924;2023-03-16T12:21:46;9.55;;;7.85;;
73841;SDS011;62184;52.006;5.924;2023-03-16T12:24:25;9.17;;;8.13;;
73841;SDS011;62184;52.006;5.924;2023-03-16T12:27:00;9.15;;;8.10;;
73841;SDS011;62184;52.006;5.924;2023-03-16T12:29:31;9.70;;;8.30;;
73841;SDS011;62184;52.006;5.924;2023-03-16T12:32:08;9.40;;;8.48;;
73841;SDS011;62184;52.006;5.924;2023-03-16T12:34:47;8.93;;;8.00;;
73841;SDS011;62184;52.006;5.924;2023-03-16T12:37:26;8.95;;;7.82;;
73841;SDS011;62184;52.006;5.924;2023-03-16T12:40:16;10.02;;;8.05;;
73841;SDS011;62184;52.006;5.924;2023-03-16T12:46:05;9.05;;;8.05;;
73841;SDS011;62184;52.006;5.924;2023-03-16T12:48:39;8.75;;;7.78;;
73841;SDS011;62184;52.006;5.924;2023-03-16T12:51:12;9.20;;;8.20;;
73841;SDS011;62184;52.006;5.924;2023-03-16T12:53:42;9.60;;;8.13;;
73841;SDS011;62184;52.006;5.924;2023-03-16T12:56:11;10.30;;;8.63;;
73841;SDS011;62184;52.006;5.924;2023-03-16T12:58:43;9.65;;;8.65;;
73841;SDS011;62184;52.006;5.924;2023-03-16T13:01:16;9.88;;;8.88;;
73841;SDS011;62184;52.006;5.924;2023-03-16T13:03:49;8.93;;;7.93;;
73841;SDS011;62184;52.006;5.924;2023-03-16T13:06:30;8.80;;;7.95;;
73841;SDS011;62184;52.006;5.924;2023-03-16T13:08:59;8.20;;;7.40;;
73841;SDS011;62184;52.006;5.924;2023-03-16T13:11:28;10.52;;;7.80;;
73841;SDS011;62184;52.006;5.924;2023-03-16T13:14:07;9.57;;;7.60;;
73841;SDS011;62184;52.006;5.924;2023-03-16T13:16:37;8.93;;;7.57;;
73841;SDS011;62184;52.006;5.924;2023-03-16T13:22:00;8.75;;;7.85;;
73841;SDS011;62184;52.006;5.924;2023-03-16T13:24:48;8.77;;;7.68;;
73841;SDS011;62184;52.006;5.924;2023-03-16T13:27:22;8.88;;;7.97;;
73841;SDS011;62184;52.006;5.924;2023-03-16T13:29:54;8.90;;;8.00;;
73841;SDS011;62184;52.006;5.924;2023-03-16T13:32:26;9.23;;;7.68;;
73841;SDS011;62184;52.006;5.924;2023-03-16T13:34:57;9.00;;;8.10;;
73841;SDS011;62184;52.006;5.924;2023-03-16T13:37:27;8.95;;;7.82;;
73841;SDS011;62184;52.006;5.924;2023-03-16T13:39:55;9.00;;;7.95;;
73841;SDS011;62184;52.006;5.924;2023-03-16T13:42:24;9.23;;;7.75;;
73841;SDS011;62184;52.006;5.924;2023-03-16T13:44:55;8.73;;;7.70;;
73841;SDS011;62184;52.006;5.924;2023-03-16T13:47:25;8.80;;;7.90;;
73841;SDS011;62184;52.006;5.924;2023-03-16T13:49:54;8.55;;;7.75;;
73841;SDS011;62184;52.006;5.924;2023-03-16T13:52:24;9.18;;;7.82;;
73841;SDS011;62184;52.006;5.924;2023-03-16T13:54:53;8.85;;;7.93;;
73841;SDS011;62184;52.006;5.924;2023-03-16T13:57:22;8.90;;;8.00;;
73841;SDS011;62184;52.006;5.924;2023-03-16T13:59:53;8.60;;;7.70;;
73841;SDS011;62184;52.006;5.924;2023-03-16T14:02:34;8.00;;;7.30;;
73841;SDS011;62184;52.006;5.924;2023-03-16T14:05:10;8.50;;;7.68;;
73841;SDS011;62184;52.006;5.924;2023-03-16T14:07:42;8.75;;;7.85;;
73841;SDS011;62184;52.006;5.924;2023-03-16T14:10:13;9.27;;;8.33;;
73841;SDS011;62184;52.006;5.924;2023-03-16T14:12:48;8.60;;;7.70;;
73841;SDS011;62184;52.006;5.924;2023-03-16T14:15:16;9.00;;;8.10;;
73841;SDS011;62184;52.006;5.924;2023-03-16T14:17:46;8.75;;;7.78;;
73841;SDS011;62184;52.006;5.924;2023-03-16T14:20:16;9.30;;;8.13;;
73841;SDS011;62184;52.006;5.924;2023-03-16T14:22:45;8.47;;;7.60;;
73841;SDS011;62184;52.006;5.924;2023-03-16T14:25:16;8.85;;;7.90;;
73841;SDS011;62184;52.006;5.924;2023-03-16T14:27:47;9.35;;;7.57;;
73841;SDS011;62184;52.006;5.924;2023-03-16T14:30:23;8.98;;;7.88;;
73841;SDS011;62184;52.006;5.924;2023-03-16T14:32:58;8.40;;;7.50;;
73841;SDS011;62184;52.006;5.924;2023-03-16T14:35:27;8.50;;;7.70;;
73841;SDS011;62184;52.006;5.924;2023-03-16T14:37:56;8.57;;;7.60;;
73841;SDS011;62184;52.006;5.924;2023-03-16T14:40:49;8.68;;;7.78;;
73841;SDS011;62184;52.006;5.924;2023-03-16T14:43:19;8.70;;;7.90;;
73841;SDS011;62184;52.006;5.924;2023-03-16T14:45:53;8.63;;;7.72;;
73841;SDS011;62184;52.006;5.924;2023-03-16T14:48:23;8.10;;;7.27;;
73841;SDS011;62184;52.006;5.924;2023-03-16T14:50:52;7.97;;;7.15;;
73841;SDS011;62184;52.006;5.924;2023-03-16T14:53:21;8.70;;;6.80;;
73841;SDS011;62184;52.006;5.924;2023-03-16T14:55:48;7.95;;;7.13;;
73841;SDS011;62184;52.006;5.924;2023-03-16T14:58:15;9.52;;;7.45;;
73841;SDS011;62184;52.006;5.924;2023-03-16T15:00:41;8.07;;;7.20;;
73841;SDS011;62184;52.006;5.924;2023-03-16T15:03:10;8.45;;;7.30;;
73841;SDS011;62184;52.006;5.924;2023-03-16T15:05:45;7.97;;;7.18;;